Time;durP1;ratioP1;P1;durP2;ratioP2;P2;SDS_P1;SDS_P2;PMS_P1;PMS_P2;Temp;Humidity;BMP_temperature;BMP_pressure;BME280_temperature;BME280_humidity;BME280_pressure;Samples;Min_cycle;Max_cycle;Signal;HPM_P1;HPM_P2
2023/07/01 00:01:39;;;;;;;6.18;2.90;;;;;;;19.41;47.69;100666.97;5074323;28;20024;-67
2023/07/01 00:04:04;;;;;;;10.13;3.28;;;;;;;19.36;47.81;100663.06;5092930;28;20109;-67
2023/07/01 00:06:30;;;;;;;6.05;3.13;;;;;;;19.27;48.56;100659.44;5094355;28;20455;-67
2023/07/01 00:08:55;;;;;;;6.05;2.80;;;;;;;19.26;48.29;100655.03;5075797;28;20094;-66
2023/07/01 00:11:21;;;;;;;6.45;3.20;;;;;;;19.32;48.36;100659.78;5072826;28;20723;-67
2023/07/01 00:13:47;;;;;;;6.93;2.97;;;;;;;19.29;48.46;100646.63;5072710;28;20087;-66
2023/07/01 00:16:15;;;;;;;9.38;3.50;;;;;;;19.34;48.51;100643.47;5066781;28;20072;-67
2023/07/01 00:18:41;;;;;;;10.18;3.55;;;;;;;19.33;48.66;100637.25;5061967;28;20488;-67
2023/07/01 00:21:07;;;;;;;21.80;4.10;;;;;;;19.26;48.84;100633.47;5069091;28;20087;-66
2023/07/01 00:23:35;;;;;;;9.73;3.70;;;;;;;19.29;48.82;100631.31;5053876;28;20033;-66
2023/07/01 00:26:03;;;;;;;6.75;3.15;;;;;;;19.20;49.35;100634.09;5073531;28;20029;-67
2023/07/01 00:28:31;;;;;;;6.97;3.15;;;;;;;19.13;49.62;100628.50;5073161;28;20028;-67
2023/07/01 00:30:56;;;;;;;7.80;2.95;;;;;;;19.02;49.85;100613.41;5073220;28;20025;-66
2023/07/01 00:33:22;;;;;;;10.10;3.08;;;;;;;19.07;49.90;100621.03;5073213;28;20376;-67
2023/07/01 00:35:47;;;;;;;7.45;3.17;;;;;;;19.08;50.09;100620.03;5073698;28;20051;-66
2023/07/01 00:38:13;;;;;;;8.00;3.50;;;;;;;19.09;50.03;100612.78;5072582;28;20468;-66
2023/07/01 00:40:40;;;;;;;8.15;3.42;;;;;;;19.12;50.04;100602.56;5073303;28;20112;-66
2023/07/01 00:43:06;;;;;;;7.90;3.95;;;;;;;19.05;50.50;100602.31;5072985;28;20032;-66
2023/07/01 00:45:31;;;;;;;8.77;3.75;;;;;;;18.98;50.82;100609.34;5072874;28;20024;-66
2023/07/01 00:47:56;;;;;;;6.50;3.67;;;;;;;18.94;51.10;100601.72;5073018;28;20024;-66
2023/07/01 00:50:24;;;;;;;9.95;3.00;;;;;;;18.94;51.32;100597.22;5072565;28;20036;-66
2023/07/01 00:52:49;;;;;;;8.48;3.33;;;;;;;18.89;51.46;100590.59;5087946;27;20587;-66
2023/07/01 00:55:15;;;;;;;5.80;3.20;;;;;;;18.94;51.86;100597.22;5133575;27;20117;-67
2023/07/01 00:57:40;;;;;;;9.10;3.30;;;;;;;18.98;52.35;100598.56;5112029;28;20019;-66
2023/07/01 01:00:10;;;;;;;3.72;2.90;;;;;;;18.89;52.82;100590.59;5112976;28;20035;-66
2023/07/01 01:02:53;;;;;;;6.07;3.25;;;;;;;18.88;53.33;100594.28;5113361;28;20023;-67
2023/07/01 01:05:35;;;;;;;4.47;3.08;;;;;;;18.90;53.29;100592.28;5113323;28;20110;-66
2023/07/01 01:08:06;;;;;;;5.15;3.17;;;;;;;18.91;53.46;100583.19;5112895;28;20027;-67
2023/07/01 01:10:33;;;;;;;5.32;2.95;;;;;;;18.84;53.52;100578.41;5101937;27;20087;-67
2023/07/01 01:13:00;;;;;;;10.73;3.20;;;;;;;18.97;53.36;100574.47;5115304;27;20470;-66
2023/07/01 01:15:27;;;;;;;6.03;3.20;;;;;;;18.95;53.33;100577.31;5133681;27;20100;-66
2023/07/01 01:17:56;;;;;;;5.50;3.05;;;;;;;18.95;53.58;100569.25;5114360;27;20030;-66
2023/07/01 01:20:23;;;;;;;6.05;3.05;;;;;;;18.90;53.81;100568.03;5112998;28;20482;-66
2023/07/01 01:22:53;;;;;;;6.07;3.30;;;;;;;18.80;54.27;100554.66;5112567;28;20046;-66
2023/07/01 01:25:27;;;;;;;6.22;2.90;;;;;;;18.81;54.57;100557.19;5103567;28;20382;-66
2023/07/01 01:27:54;;;;;;;6.90;3.50;;;;;;;18.82;55.21;100553.50;5110913;28;20032;-66
2023/07/01 01:30:23;;;;;;;4.97;3.00;;;;;;;18.91;55.13;100565.16;5112513;28;20494;-67
2023/07/01 01:32:49;;;;;;;8.98;4.07;;;;;;;18.82;56.48;100548.13;5112820;28;20026;-66
2023/07/01 01:35:14;;;;;;;8.20;3.38;;;;;;;18.83;56.35;100554.34;5077489;28;20032;-67
2023/07/01 01:38:09;;;;;;;9.55;3.95;;;;;;;18.83;57.47;100555.19;5094272;28;20028;-67
2023/07/01 01:40:44;;;;;;;8.45;3.30;;;;;;;18.78;58.68;100543.19;5093964;28;20087;-66
2023/07/01 01:43:17;;;;;;;9.00;3.20;;;;;;;18.76;59.91;100542.47;5112770;28;20051;-66
2023/07/01 01:45:44;;;;;;;6.40;4.10;;;;;;;18.70;60.73;100548.47;5118320;27;20027;-66
2023/07/01 01:48:10;;;;;;;8.73;3.67;;;;;;;18.64;60.12;100544.56;5112301;28;20027;-66
2023/07/01 01:50:38;;;;;;;4.18;3.50;;;;;;;18.64;60.89;100535.63;5094382;28;20025;-66
2023/07/01 01:53:05;;;;;;;5.38;3.60;;;;;;;18.60;61.01;100537.81;5111815;28;20051;-66
2023/07/01 01:55:31;;;;;;;5.88;3.17;;;;;;;18.52;60.92;100522.41;5112522;28;20040;-66
2023/07/01 01:57:58;;;;;;;6.45;3.20;;;;;;;18.57;60.96;100528.19;5093869;28;20085;-66
2023/07/01 02:00:24;;;;;;;10.60;3.58;;;;;;;18.66;61.04;100528.25;5094799;28;20106;-66
2023/07/01 02:02:49;;;;;;;6.03;3.60;;;;;;;18.60;61.25;100524.34;5111605;27;20115;-67
2023/07/01 02:05:14;;;;;;;6.88;3.35;;;;;;;18.66;61.06;100522.84;5112224;28;20474;-66
2023/07/01 02:07:40;;;;;;;9.93;3.65;;;;;;;18.67;61.02;100514.59;5093775;28;20042;-66
2023/07/01 02:10:06;;;;;;;5.72;3.25;;;;;;;18.68;61.33;100518.13;5111486;28;20050;-66
2023/07/01 02:12:32;;;;;;;7.93;3.88;;;;;;;18.59;61.05;100522.66;5112265;28;20023;-66
2023/07/01 02:14:57;;;;;;;6.25;3.53;;;;;;;18.63;61.16;100515.09;5111710;28;20026;-67
2023/07/01 02:17:22;;;;;;;9.40;3.90;;;;;;;18.47;61.89;100516.66;5111516;28;20046;-66
2023/07/01 02:19:48;;;;;;;6.50;3.45;;;;;;;18.39;62.25;100520.13;5112395;28;20024;-66
2023/07/01 02:22:13;;;;;;;7.55;4.18;;;;;;;18.33;62.78;100501.06;5111305;28;20023;-67
2023/07/01 02:24:39;;;;;;;8.20;3.38;;;;;;;18.36;62.96;100506.13;5077723;28;20023;-66
2023/07/01 02:27:05;;;;;;;7.60;4.10;;;;;;;18.34;63.48;100508.13;5089656;28;20466;-66
2023/07/01 02:29:30;;;;;;;8.23;3.50;;;;;;;18.37;63.64;100500.56;5090111;28;20059;-67
2023/07/01 02:31:55;;;;;;;9.60;4.22;;;;;;;18.18;64.55;100487.31;5110124;28;20106;-66
2023/07/01 02:34:26;;;;;;;10.23;3.47;;;;;;;18.20;67.33;100500.59;5112306;28;20032;-66
2023/07/01 02:36:51;;;;;;;6.10;3.20;;;;;;;18.06;69.09;100483.13;5114095;28;20039;-66
2023/07/01 02:39:16;;;;;;;8.25;3.22;;;;;;;18.09;70.24;100482.84;5108084;28;20028;-67
2023/07/01 02:41:42;;;;;;;12.25;4.28;;;;;;;17.97;71.55;100484.06;5097452;28;20028;-66
2023/07/01 02:44:07;;;;;;;6.60;3.42;;;;;;;17.77;73.36;100489.56;5110998;28;20127;-66
2023/07/01 02:46:32;;;;;;;10.77;3.03;;;;;;;17.71;74.84;100480.25;5095917;28;20016;-66
2023/07/01 02:48:58;;;;;;;7.88;2.88;;;;;;;17.63;76.01;100480.16;5102602;28;20050;-66
2023/07/01 02:51:23;;;;;;;4.55;3.17;;;;;;;17.45;77.61;100477.44;5101132;28;20044;-67
2023/07/01 02:53:49;;;;;;;5.72;3.40;;;;;;;17.52;77.77;100475.00;5084534;28;20397;-66
2023/07/01 02:56:14;;;;;;;7.40;3.30;;;;;;;17.44;78.61;100482.97;5087685;28;20028;-66
2023/07/01 02:58:39;;;;;;;4.53;3.30;;;;;;;17.41;79.24;100484.13;5094544;28;20360;-66
2023/07/01 03:01:05;;;;;;;6.00;3.10;;;;;;;17.27;79.66;100471.19;5091456;28;20064;-67
2023/07/01 03:03:30;;;;;;;5.95;2.97;;;;;;;17.39;79.85;100474.53;5075254;28;20024;-66
2023/07/01 03:05:56;;;;;;;5.05;3.53;;;;;;;17.32;80.26;100468.03;5091799;28;20028;-66
2023/07/01 03:08:21;;;;;;;6.40;3.20;;;;;;;17.31;80.38;100466.34;5093907;28;20073;-67
2023/07/01 03:10:46;;;;;;;4.63;3.35;;;;;;;17.18;81.31;100467.56;5094434;28;20528;-67
2023/07/01 03:13:12;;;;;;;4.20;3.35;;;;;;;17.21;82.16;100472.63;5094178;28;20077;-66
2023/07/01 03:15:37;;;;;;;4.60;3.40;;;;;;;17.22;82.74;100465.41;5092948;28;20035;-66
2023/07/01 03:18:03;;;;;;;7.60;3.22;;;;;;;17.09;83.73;100452.34;5092312;28;20046;-66
2023/07/01 03:20:28;;;;;;;6.15;3.40;;;;;;;17.07;84.14;100456.16;5082845;28;20020;-67
2023/07/01 03:22:58;;;;;;;8.00;3.13;;;;;;;16.96;84.93;100452.66;5077174;28;20016;-66
2023/07/01 03:25:25;;;;;;;8.05;3.50;;;;;;;17.14;84.57;100450.00;5093656;28;20437;-66
2023/07/01 03:27:50;;;;;;;7.43;3.83;;;;;;;17.04;84.81;100449.22;5094115;28;20028;-66
2023/07/01 03:30:17;;;;;;;4.57;3.10;;;;;;;16.98;84.73;100437.25;5091109;28;20073;-66
2023/07/01 03:32:44;;;;;;;4.63;3.78;;;;;;;16.98;84.90;100447.97;5091487;28;20039;-67
2023/07/01 03:35:13;;;;;;;7.05;4.22;;;;;;;16.90;85.38;100428.22;5089928;28;20024;-66
2023/07/01 03:37:41;;;;;;;10.02;3.53;;;;;;;16.97;85.39;100443.63;5108435;28;20039;-66
2023/07/01 03:40:12;;;;;;;7.50;3.97;;;;;;;16.95;85.57;100442.91;5087253;28;20036;-67
2023/07/01 03:42:38;;;;;;;8.43;3.67;;;;;;;16.94;86.67;100433.16;5091531;28;20505;-66
2023/07/01 03:45:08;;;;;;;6.35;4.00;;;;;;;16.91;88.32;100441.53;5094279;28;20036;-66
2023/07/01 03:47:43;;;;;;;5.40;3.75;;;;;;;16.95;88.54;100434.00;5093198;28;20081;-66
2023/07/01 03:50:10;;;;;;;4.28;3.67;;;;;;;16.78;89.28;100430.25;5093206;28;20020;-66
2023/07/01 03:52:39;;;;;;;4.95;4.28;;;;;;;16.82;90.28;100428.09;5087059;28;20083;-66
2023/07/01 03:55:07;;;;;;;4.40;3.78;;;;;;;16.77;90.47;100433.94;5106243;28;20386;-67
2023/07/01 03:57:33;;;;;;;7.05;3.92;;;;;;;16.65;91.84;100427.88;5112483;28;20131;-66
2023/07/01 03:59:59;;;;;;;4.88;4.00;;;;;;;16.61;92.98;100425.59;5078224;28;20035;-66
2023/07/01 04:02:28;;;;;;;5.20;4.40;;;;;;;16.59;94.85;100420.41;5111193;28;20024;-66
2023/07/01 04:04:53;;;;;;;7.63;4.10;;;;;;;16.63;95.45;100418.25;5105189;28;20051;-66
2023/07/01 04:07:21;;;;;;;5.55;3.65;;;;;;;16.60;95.19;100410.50;5098833;28;20513;-66
2023/07/01 04:09:50;;;;;;;7.45;4.40;;;;;;;16.72;96.11;100417.38;5085738;28;20020;-67
2023/07/01 04:12:16;;;;;;;6.50;4.00;;;;;;;16.55;95.60;100397.50;5080129;28;20024;-67
2023/07/01 04:14:42;;;;;;;7.28;4.45;;;;;;;16.45;96.05;100402.91;5095148;28;20321;-66
2023/07/01 04:17:07;;;;;;;4.15;3.75;;;;;;;16.52;96.72;100395.94;5085309;28;20063;-66
2023/07/01 04:19:32;;;;;;;4.40;3.80;;;;;;;16.48;97.48;100401.78;5077421;28;20016;-67
2023/07/01 04:22:00;;;;;;;4.55;3.63;;;;;;;16.39;98.28;100399.97;5086066;28;20102;-67
2023/07/01 04:24:30;;;;;;;4.47;3.72;;;;;;;16.36;98.84;100395.72;5112089;28;20057;-66
2023/07/01 04:26:55;;;;;;;4.50;4.05;;;;;;;16.38;99.12;100392.88;5097467;28;20128;-66
2023/07/01 04:29:21;;;;;;;3.90;3.60;;;;;;;16.30;98.92;100391.78;5089332;28;20483;-66
2023/07/01 04:31:46;;;;;;;4.20;3.80;;;;;;;16.30;98.61;100390.94;5093550;28;20438;-66
2023/07/01 04:34:14;;;;;;;4.25;3.85;;;;;;;16.31;100.00;100380.06;5110170;28;20414;-66
2023/07/01 04:36:39;;;;;;;5.13;3.80;;;;;;;16.39;100.00;100391.91;5100563;28;20023;-66
2023/07/01 04:39:09;;;;;;;4.53;3.95;;;;;;;16.28;100.00;100382.19;5112403;28;20043;-66
2023/07/01 04:41:34;;;;;;;4.30;3.90;;;;;;;16.31;100.00;100381.91;5108452;28;20552;-66
2023/07/01 04:44:00;;;;;;;4.20;3.90;;;;;;;16.34;100.00;100387.81;5101594;28;20028;-66
2023/07/01 04:46:31;;;;;;;5.40;4.03;;;;;;;16.33;100.00;100370.03;5106318;28;20098;-66
2023/07/01 04:48:56;;;;;;;4.30;3.90;;;;;;;16.37;100.00;100385.84;5108127;28;20065;-65
2023/07/01 04:51:24;;;;;;;4.88;3.88;;;;;;;16.38;100.00;100374.09;5113236;28;20035;-66
2023/07/01 04:53:49;;;;;;;4.50;3.72;;;;;;;16.33;100.00;100375.41;5086653;28;20495;-66
2023/07/01 04:56:23;;;;;;;3.80;3.47;;;;;;;16.34;100.00;100368.19;5109434;28;20027;-66
2023/07/01 04:58:49;;;;;;;3.95;3.60;;;;;;;16.31;100.00;100357.75;5104891;28;20023;-67
2023/07/01 05:01:14;;;;;;;4.65;3.60;;;;;;;16.48;100.00;100359.66;5113149;28;20160;-66
2023/07/01 05:03:40;;;;;;;8.15;3.90;;;;;;;16.41;100.00;100361.22;5094965;28;20054;-66
2023/07/01 05:06:07;;;;;;;4.10;3.70;;;;;;;16.39;100.00;100355.19;5094632;28;20020;-66
2023/07/01 05:08:35;;;;;;;4.72;4.03;;;;;;;16.41;100.00;100357.69;5112898;27;20024;-66
2023/07/01 05:11:00;;;;;;;3.88;3.58;;;;;;;16.43;100.00;100350.34;5112821;28;20028;-66
2023/07/01 05:13:26;;;;;;;4.05;3.65;;;;;;;16.38;100.00;100364.22;5094111;28;20079;-66
2023/07/01 05:15:51;;;;;;;4.22;3.65;;;;;;;16.44;100.00;100360.97;5112640;28;20521;-66
2023/07/01 05:18:16;;;;;;;3.90;3.47;;;;;;;16.52;100.00;100362.91;5112552;28;20023;-66
2023/07/01 05:20:42;;;;;;;4.07;3.47;;;;;;;16.50;100.00;100356.81;5113076;28;20047;-67
2023/07/01 05:23:07;;;;;;;3.83;3.50;;;;;;;16.42;100.00;100359.41;5112209;28;20023;-66
2023/07/01 05:25:35;;;;;;;5.35;3.67;;;;;;;16.39;100.00;100355.19;5113377;28;20116;-66
2023/07/01 05:28:00;;;;;;;4.20;3.70;;;;;;;16.55;100.00;100359.91;5112124;28;20076;-66
2023/07/01 05:30:26;;;;;;;6.47;3.92;;;;;;;16.43;100.00;100359.25;5112863;28;20024;-66
2023/07/01 05:32:51;;;;;;;4.13;3.72;;;;;;;16.37;100.00;100359.00;5112877;28;20034;-66
2023/07/01 05:35:16;;;;;;;4.22;3.83;;;;;;;16.41;100.00;100347.81;5112474;28;20035;-66
2023/07/01 05:37:42;;;;;;;5.28;3.78;;;;;;;16.39;100.00;100348.97;5112805;28;20039;-66
2023/07/01 05:40:08;;;;;;;5.45;3.60;;;;;;;16.42;100.00;100348.69;5112072;28;20071;-66
2023/07/01 05:42:34;;;;;;;4.25;3.90;;;;;;;16.37;100.00;100348.25;5113174;27;20488;-67
2023/07/01 05:44:59;;;;;;;4.47;3.70;;;;;;;16.33;100.00;100345.88;5112348;28;20098;-66
2023/07/01 05:47:25;;;;;;;4.10;3.70;;;;;;;16.30;100.00;100343.50;5112704;28;20378;-66
2023/07/01 05:49:50;;;;;;;4.45;3.83;;;;;;;16.33;100.00;100345.03;5112434;28;20095;-66
2023/07/01 05:52:16;;;;;;;4.80;3.10;;;;;;;16.30;100.00;100345.31;5112050;28;20028;-66
2023/07/01 05:54:46;;;;;;;4.05;3.65;;;;;;;16.24;100.00;100336.03;5093795;28;20015;-66
2023/07/01 05:57:11;;;;;;;4.43;3.58;;;;;;;16.34;100.00;100342.19;5112418;28;20032;-66
2023/07/01 05:59:39;;;;;;;4.05;3.65;;;;;;;16.37;100.00;100341.06;5111204;28;20032;-66
2023/07/01 06:02:04;;;;;;;3.72;3.42;;;;;;;16.35;100.00;100341.22;5101980;28;20467;-66
2023/07/01 06:04:32;;;;;;;4.57;3.55;;;;;;;16.41;100.00;100334.38;5111855;28;20033;-66
2023/07/01 06:06:57;;;;;;;3.65;3.35;;;;;;;16.42;100.00;100333.41;5111721;28;20095;-66
2023/07/01 06:09:23;;;;;;;5.47;3.50;;;;;;;16.46;100.00;100329.44;5109980;28;20023;-67
2023/07/01 06:11:48;;;;;;;4.35;3.40;;;;;;;16.49;100.00;100329.13;5075799;28;20063;-66
2023/07/01 06:14:13;;;;;;;5.53;3.63;;;;;;;16.47;100.00;100328.47;5104305;28;20031;-66
2023/07/01 06:16:39;;;;;;;3.97;3.28;;;;;;;16.57;100.00;100339.16;5081734;28;20460;-66
2023/07/01 06:19:05;;;;;;;3.80;3.45;;;;;;;16.53;100.00;100329.69;5110826;28;20035;-67
2023/07/01 06:21:30;;;;;;;3.78;3.42;;;;;;;16.56;100.00;100332.09;5112238;28;20024;-66
2023/07/01 06:23:55;;;;;;;3.63;3.33;;;;;;;16.60;100.00;100333.47;5111589;28;20077;-66
2023/07/01 06:26:22;;;;;;;4.30;3.65;;;;;;;16.65;100.00;100333.88;5111859;28;20377;-66
2023/07/01 06:28:49;;;;;;;4.50;3.20;;;;;;;16.53;100.00;100327.00;5111727;28;20037;-66
2023/07/01 06:31:15;;;;;;;4.07;3.45;;;;;;;16.49;100.00;100328.28;5112038;28;20051;-66
2023/07/01 06:33:40;;;;;;;3.60;3.30;;;;;;;16.49;100.00;100326.44;5119457;28;20050;-67
2023/07/01 06:36:06;;;;;;;3.70;3.40;;;;;;;16.55;100.00;100320.47;5109928;28;20522;-66
2023/07/01 06:38:34;;;;;;;4.03;3.60;;;;;;;16.55;100.00;100330.38;5109175;28;20038;-67
2023/07/01 06:41:00;;;;;;;3.50;3.30;;;;;;;16.49;100.00;100321.06;5091762;28;20081;-67
2023/07/01 06:43:25;;;;;;;3.88;3.47;;;;;;;16.51;100.00;100323.63;5126845;28;20024;-66
2023/07/01 06:45:50;;;;;;;3.75;3.20;;;;;;;16.49;100.00;100315.72;5090931;28;20486;-67
2023/07/01 06:48:16;;;;;;;4.53;3.17;;;;;;;16.47;100.00;100324.91;5110134;28;20685;-67
2023/07/01 06:50:41;;;;;;;4.00;3.60;;;;;;;16.56;100.00;100324.03;5108116;28;20026;-66
2023/07/01 06:53:09;;;;;;;3.42;3.22;;;;;;;16.57;100.00;100329.25;5109779;28;20039;-67
2023/07/01 06:55:34;;;;;;;4.43;2.95;;;;;;;16.55;100.00;100316.97;5088068;28;20447;-66
2023/07/01 06:58:02;;;;;;;3.45;3.15;;;;;;;16.53;100.00;100317.13;5110509;28;20103;-67
2023/07/01 07:00:28;;;;;;;3.22;3.03;;;;;;;16.61;100.00;100323.56;5110575;28;20122;-66
2023/07/01 07:02:54;;;;;;;4.50;3.08;;;;;;;16.55;100.00;100325.00;5110558;28;20073;-66
2023/07/01 07:05:19;;;;;;;3.58;3.30;;;;;;;16.63;100.00;100326.97;5109867;28;20027;-66
2023/07/01 07:07:45;;;;;;;3.30;3.10;;;;;;;16.63;100.00;100316.22;5109327;28;20056;-66
2023/07/01 07:10:13;;;;;;;4.38;3.05;;;;;;;16.62;100.00;100322.56;5110106;28;20023;-67
2023/07/01 07:12:38;;;;;;;3.90;3.50;;;;;;;16.57;100.00;100310.44;5110954;28;20201;-66
2023/07/01 07:15:06;;;;;;;3.75;3.45;;;;;;;16.62;100.00;100322.56;5110557;28;20150;-67
